sensor_id;sensor_type;location;lat;lon;timestamp;P1;durP1;ratioP1;P2;durP2;ratioP2
32214;SDS011;18708;53.124;23.190;2024-03-17T00:01:01;40.17;;;28.25;;
32214;SDS011;18708;53.124;23.190;2024-03-17T00:03:28;35.20;;;24.52;;
32214;SDS011;18708;53.124;23.190;2024-03-17T00:05:57;33.17;;;21.73;;
32214;SDS011;18708;53.124;23.190;2024-03-17T00:08:24;31.92;;;21.50;;
32214;SDS011;18708;53.124;23.190;2024-03-17T00:10:50;28.27;;;19.13;;
32214;SDS011;18708;53.124;23.190;2024-03-17T00:13:19;23.25;;;16.08;;
32214;SDS011;18708;53.124;23.190;2024-03-17T00:15:46;22.00;;;15.63;;
32214;SDS011;18708;53.124;23.190;2024-03-17T00:18:13;20.35;;;14.13;;
32214;SDS011;18708;53.124;23.190;2024-03-17T00:20:39;15.63;;;10.02;;
32214;SDS011;18708;53.124;23.190;2024-03-17T00:23:05;10.43;;;8.38;;
32214;SDS011;18708;53.124;23.190;2024-03-17T00:25:33;12.23;;;8.60;;
32214;SDS011;18708;53.124;23.190;2024-03-17T00:27:59;12.38;;;9.20;;
32214;SDS011;18708;53.124;23.190;2024-03-17T00:30:25;9.77;;;7.65;;
32214;SDS011;18708;53.124;23.190;2024-03-17T00:32:51;11.85;;;6.20;;
32214;SDS011;18708;53.124;23.190;2024-03-17T00:35:20;8.32;;;5.72;;
32214;SDS011;18708;53.124;23.190;2024-03-17T00:37:49;8.38;;;6.10;;
32214;SDS011;18708;53.124;23.190;2024-03-17T00:40:18;8.90;;;4.72;;
32214;SDS011;18708;53.124;23.190;2024-03-17T00:42:44;7.43;;;4.75;;
32214;SDS011;18708;53.124;23.190;2024-03-17T00:45:13;11.50;;;5.75;;
32214;SDS011;18708;53.124;23.190;2024-03-17T00:47:41;7.18;;;4.55;;
32214;SDS011;18708;53.124;23.190;2024-03-17T00:50:06;6.40;;;4.32;;
32214;SDS011;18708;53.124;23.190;2024-03-17T00:52:33;12.07;;;5.50;;
32214;SDS011;18708;53.124;23.190;2024-03-17T00:54:59;14.23;;;5.30;;
32214;SDS011;18708;53.124;23.190;2024-03-17T00:57:25;10.65;;;5.10;;
32214;SDS011;18708;53.124;23.190;2024-03-17T00:59:51;11.43;;;4.75;;
32214;SDS011;18708;53.124;23.190;2024-03-17T01:02:18;10.27;;;4.32;;
32214;SDS011;18708;53.124;23.190;2024-03-17T01:04:44;12.57;;;4.10;;
32214;SDS011;18708;53.124;23.190;2024-03-17T01:07:12;14.48;;;4.15;;
32214;SDS011;18708;53.124;23.190;2024-03-17T01:09:38;9.75;;;4.05;;
32214;SDS011;18708;53.124;23.190;2024-03-17T01:12:05;11.35;;;3.92;;
32214;SDS011;18708;53.124;23.190;2024-03-17T01:14:33;11.93;;;4.10;;
32214;SDS011;18708;53.124;23.190;2024-03-17T01:17:00;12.93;;;3.83;;
32214;SDS011;18708;53.124;23.190;2024-03-17T01:19:31;10.13;;;4.07;;
32214;SDS011;18708;53.124;23.190;2024-03-17T01:21:57;10.65;;;3.40;;
32214;SDS011;18708;53.124;23.190;2024-03-17T01:24:25;9.73;;;3.50;;
32214;SDS011;18708;53.124;23.190;2024-03-17T01:26:56;9.32;;;3.42;;
32214;SDS011;18708;53.124;23.190;2024-03-17T01:29:25;9.82;;;3.58;;
32214;SDS011;18708;53.124;23.190;2024-03-17T01:31:51;13.88;;;3.55;;
32214;SDS011;18708;53.124;23.190;2024-03-17T01:34:18;12.55;;;3.40;;
32214;SDS011;18708;53.124;23.190;2024-03-17T01:36:47;11.30;;;3.35;;
32214;SDS011;18708;53.124;23.190;2024-03-17T01:39:16;15.05;;;3.88;;
32214;SDS011;18708;53.124;23.190;2024-03-17T01:41:42;12.65;;;3.50;;
32214;SDS011;18708;53.124;23.190;2024-03-17T01:44:08;10.13;;;3.72;;
32214;SDS011;18708;53.124;23.190;2024-03-17T01:46:51;9.07;;;3.20;;
32214;SDS011;18708;53.124;23.190;2024-03-17T01:49:18;9.13;;;3.42;;
32214;SDS011;18708;53.124;23.190;2024-03-17T01:51:45;10.30;;;3.38;;
32214;SDS011;18708;53.124;23.190;2024-03-17T01:54:15;10.48;;;3.30;;
32214;SDS011;18708;53.124;23.190;2024-03-17T01:56:42;11.27;;;3.65;;
32214;SDS011;18708;53.124;23.190;2024-03-17T01:59:08;10.18;;;3.40;;
32214;SDS011;18708;53.124;23.190;2024-03-17T02:01:38;12.15;;;3.50;;
32214;SDS011;18708;53.124;23.190;2024-03-17T02:04:06;8.93;;;3.20;;
32214;SDS011;18708;53.124;23.190;2024-03-17T02:06:31;7.63;;;2.70;;
32214;SDS011;18708;53.124;23.190;2024-03-17T02:08:57;8.35;;;3.35;;
32214;SDS011;18708;53.124;23.190;2024-03-17T02:11:24;11.60;;;3.00;;
32214;SDS011;18708;53.124;23.190;2024-03-17T02:13:52;14.95;;;2.40;;
32214;SDS011;18708;53.124;23.190;2024-03-17T02:16:18;9.90;;;2.50;;
32214;SDS011;18708;53.124;23.190;2024-03-17T02:18:46;11.02;;;2.58;;
32214;SDS011;18708;53.124;23.190;2024-03-17T02:21:12;11.90;;;2.95;;
32214;SDS011;18708;53.124;23.190;2024-03-17T02:23:39;9.82;;;2.70;;
32214;SDS011;18708;53.124;23.190;2024-03-17T02:26:09;9.18;;;2.58;;
32214;SDS011;18708;53.124;23.190;2024-03-17T02:28:38;8.63;;;2.25;;
32214;SDS011;18708;53.124;23.190;2024-03-17T02:31:05;11.60;;;2.92;;
32214;SDS011;18708;53.124;23.190;2024-03-17T02:33:32;9.25;;;2.60;;
32214;SDS011;18708;53.124;23.190;2024-03-17T02:35:58;10.95;;;3.15;;
32214;SDS011;18708;53.124;23.190;2024-03-17T02:38:24;10.43;;;2.72;;
32214;SDS011;18708;53.124;23.190;2024-03-17T02:41:09;18.48;;;2.97;;
32214;SDS011;18708;53.124;23.190;2024-03-17T02:43:37;15.25;;;3.28;;
32214;SDS011;18708;53.124;23.190;2024-03-17T02:46:02;14.88;;;3.17;;
32214;SDS011;18708;53.124;23.190;2024-03-17T02:48:31;12.45;;;3.70;;
32214;SDS011;18708;53.124;23.190;2024-03-17T02:51:00;13.88;;;3.72;;
32214;SDS011;18708;53.124;23.190;2024-03-17T02:53:25;11.43;;;3.33;;
32214;SDS011;18708;53.124;23.190;2024-03-17T02:55:51;11.27;;;3.28;;
32214;SDS011;18708;53.124;23.190;2024-03-17T02:58:17;12.52;;;2.72;;
32214;SDS011;18708;53.124;23.190;2024-03-17T03:00:42;11.20;;;3.47;;
32214;SDS011;18708;53.124;23.190;2024-03-17T03:03:09;13.30;;;3.58;;
32214;SDS011;18708;53.124;23.190;2024-03-17T03:05:35;10.75;;;3.35;;
32214;SDS011;18708;53.124;23.190;2024-03-17T03:08:03;9.52;;;3.55;;
32214;SDS011;18708;53.124;23.190;2024-03-17T03:10:29;10.93;;;3.53;;
32214;SDS011;18708;53.124;23.190;2024-03-17T03:12:55;14.18;;;3.75;;
32214;SDS011;18708;53.124;23.190;2024-03-17T03:15:21;17.83;;;4.28;;
32214;SDS011;18708;53.124;23.190;2024-03-17T03:17:47;12.30;;;3.50;;
32214;SDS011;18708;53.124;23.190;2024-03-17T03:20:13;8.55;;;3.45;;
32214;SDS011;18708;53.124;23.190;2024-03-17T03:22:39;11.07;;;3.88;;
32214;SDS011;18708;53.124;23.190;2024-03-17T03:25:04;11.77;;;3.80;;
32214;SDS011;18708;53.124;23.190;2024-03-17T03:27:30;11.68;;;4.00;;
32214;SDS011;18708;53.124;23.190;2024-03-17T03:29:56;19.48;;;4.22;;
32214;SDS011;18708;53.124;23.190;2024-03-17T03:32:25;14.02;;;3.70;;
32214;SDS011;18708;53.124;23.190;2024-03-17T03:34:51;14.93;;;4.13;;
32214;SDS011;18708;53.124;23.190;2024-03-17T03:37:16;12.02;;;3.78;;
32214;SDS011;18708;53.124;23.190;2024-03-17T03:39:42;14.05;;;3.15;;
32214;SDS011;18708;53.124;23.190;2024-03-17T03:42:08;16.48;;;3.13;;
32214;SDS011;18708;53.124;23.190;2024-03-17T03:44:33;14.15;;;3.17;;
32214;SDS011;18708;53.124;23.190;2024-03-17T03:46:59;12.68;;;3.35;;
32214;SDS011;18708;53.124;23.190;2024-03-17T03:49:26;17.65;;;3.47;;
32214;SDS011;18708;53.124;23.190;2024-03-17T03:51:51;18.17;;;3.60;;
32214;SDS011;18708;53.124;23.190;2024-03-17T03:54:17;15.13;;;4.00;;
32214;SDS011;18708;53.124;23.190;2024-03-17T03:56:45;16.33;;;3.30;;
32214;SDS011;18708;53.124;23.190;2024-03-17T03:59:11;11.80;;;3.58;;
32214;SDS011;18708;53.124;23.190;2024-03-17T04:01:36;12.05;;;3.17;;
32214;SDS011;18708;53.124;23.190;2024-03-17T04:04:02;12.65;;;3.17;;
32214;SDS011;18708;53.124;23.190;2024-03-17T04:06:28;13.95;;;2.95;;
32214;SDS011;18708;53.124;23.190;2024-03-17T04:08:54;17.38;;;4.03;;
32214;SDS011;18708;53.124;23.190;2024-03-17T04:11:19;13.90;;;3.72;;
32214;SDS011;18708;53.124;23.190;2024-03-17T04:13:45;17.17;;;3.45;;
32214;SDS011;18708;53.124;23.190;2024-03-17T04:16:12;9.05;;;2.92;;
32214;SDS011;18708;53.124;23.190;2024-03-17T04:18:37;14.93;;;3.28;;
32214;SDS011;18708;53.124;23.190;2024-03-17T04:21:06;13.55;;;3.25;;
32214;SDS011;18708;53.124;23.190;2024-03-17T04:23:32;20.30;;;3.50;;
32214;SDS011;18708;53.124;23.190;2024-03-17T04:25:58;18.83;;;3.78;;
32214;SDS011;18708;53.124;23.190;2024-03-17T04:28:25;14.70;;;3.17;;
32214;SDS011;18708;53.124;23.190;2024-03-17T04:30:51;13.77;;;3.15;;
32214;SDS011;18708;53.124;23.190;2024-03-17T04:33:17;12.38;;;3.90;;
32214;SDS011;18708;53.124;23.190;2024-03-17T04:35:43;19.90;;;4.50;;
32214;SDS011;18708;53.124;23.190;2024-03-17T04:38:08;12.68;;;3.58;;
32214;SDS011;18708;53.124;23.190;2024-03-17T04:40:34;19.33;;;3.80;;
32214;SDS011;18708;53.124;23.190;2024-03-17T04:43:05;20.05;;;3.55;;
32214;SDS011;18708;53.124;23.190;2024-03-17T04:45:31;25.63;;;3.75;;
32214;SDS011;18708;53.124;23.190;2024-03-17T04:47:57;16.50;;;3.22;;
32214;SDS011;18708;53.124;23.190;2024-03-17T04:50:23;14.27;;;3.08;;
32214;SDS011;18708;53.124;23.190;2024-03-17T04:52:49;16.13;;;3.30;;
32214;SDS011;18708;53.124;23.190;2024-03-17T04:55:14;10.48;;;3.20;;
32214;SDS011;18708;53.124;23.190;2024-03-17T04:57:42;10.40;;;2.67;;
32214;SDS011;18708;53.124;23.190;2024-03-17T05:00:09;11.98;;;2.88;;
32214;SDS011;18708;53.124;23.190;2024-03-17T05:02:37;15.55;;;3.33;;
32214;SDS011;18708;53.124;23.190;2024-03-17T05:05:03;13.73;;;3.58;;
32214;SDS011;18708;53.124;23.190;2024-03-17T05:07:30;18.63;;;3.85;;
32214;SDS011;18708;53.124;23.190;2024-03-17T05:09:58;13.95;;;2.58;;
32214;SDS011;18708;53.124;23.190;2024-03-17T05:12:24;13.60;;;3.20;;
32214;SDS011;18708;53.124;23.190;2024-03-17T05:14:49;15.30;;;3.17;;
32214;SDS011;18708;53.124;23.190;2024-03-17T05:17:17;13.88;;;3.53;;
32214;SDS011;18708;53.124;23.190;2024-03-17T05:19:43;15.80;;;3.60;;
32214;SDS011;18708;53.124;23.190;2024-03-17T05:22:09;11.55;;;2.97;;
32214;SDS011;18708;53.124;23.190;2024-03-17T05:24:37;11.65;;;3.55;;
32214;SDS011;18708;53.124;23.190;2024-03-17T05:27:05;13.57;;;3.60;;
32214;SDS011;18708;53.124;23.190;2024-03-17T05:29:33;17.65;;;3.55;;
32214;SDS011;18708;53.124;23.190;2024-03-17T05:32:02;13.07;;;2.75;;
32214;SDS011;18708;53.124;23.190;2024-03-17T05:34:29;15.93;;;3.65;;
32214;SDS011;18708;53.124;23.190;2024-03-17T05:36:55;17.27;;;3.50;;
32214;SDS011;18708;53.124;23.190;2024-03-17T05:39:21;15.27;;;3.47;;
32214;SDS011;18708;53.124;23.190;2024-03-17T05:41:47;14.30;;;3.67;;
32214;SDS011;18708;53.124;23.190;2024-03-17T05:44:14;12.65;;;3.40;;
32214;SDS011;18708;53.124;23.190;2024-03-17T05:46:40;10.98;;;3.25;;
32214;SDS011;18708;53.124;23.190;2024-03-17T05:49:07;17.23;;;4.10;;
32214;SDS011;18708;53.124;23.190;2024-03-17T05:51:32;15.57;;;3.47;;
32214;SDS011;18708;53.124;23.190;2024-03-17T05:53:58;19.25;;;3.40;;
32214;SDS011;18708;53.124;23.190;2024-03-17T05:56:24;23.27;;;3.88;;
32214;SDS011;18708;53.124;23.190;2024-03-17T05:58:49;13.23;;;3.63;;
32214;SDS011;18708;53.124;23.190;2024-03-17T06:01:15;12.20;;;2.95;;
32214;SDS011;18708;53.124;23.190;2024-03-17T06:03:41;15.95;;;3.22;;
32214;SDS011;18708;53.124;23.190;2024-03-17T06:06:07;12.52;;;3.03;;
32214;SDS011;18708;53.124;23.190;2024-03-17T06:08:34;13.45;;;3.33;;
32214;SDS011;18708;53.124;23.190;2024-03-17T06:11:00;14.10;;;2.67;;
32214;SDS011;18708;53.124;23.190;2024-03-17T06:13:26;12.68;;;3.10;;
32214;SDS011;18708;53.124;23.190;2024-03-17T06:15:53;11.85;;;2.67;;
32214;SDS011;18708;53.124;23.190;2024-03-17T06:18:19;9.00;;;2.47;;
32214;SDS011;18708;53.124;23.190;2024-03-17T06:20:45;14.38;;;3.05;;
32214;SDS011;18708;53.124;23.190;2024-03-17T06:23:13;8.30;;;2.28;;
32214;SDS011;18708;53.124;23.190;2024-03-17T06:28:08;10.32;;;3.58;;
32214;SDS011;18708;53.124;23.190;2024-03-17T06:30:41;12.40;;;2.85;;
32214;SDS011;18708;53.124;23.190;2024-03-17T06:33:15;13.95;;;2.75;;
32214;SDS011;18708;53.124;23.190;2024-03-17T06:35:44;8.52;;;2.67;;
32214;SDS011;18708;53.124;23.190;2024-03-17T06:38:11;13.15;;;3.13;;
32214;SDS011;18708;53.124;23.190;2024-03-17T06:40:37;14.10;;;2.80;;
32214;SDS011;18708;53.124;23.190;2024-03-17T06:43:03;12.95;;;2.38;;
32214;SDS011;18708;53.124;23.190;2024-03-17T06:45:30;11.88;;;2.55;;
32214;SDS011;18708;53.124;23.190;2024-03-17T06:47:55;5.57;;;2.03;;
32214;SDS011;18708;53.124;23.190;2024-03-17T06:50:21;7.50;;;2.13;;
32214;SDS011;18708;53.124;23.190;2024-03-17T06:52:47;13.35;;;3.20;;
32214;SDS011;18708;53.124;23.190;2024-03-17T06:55:13;10.77;;;2.25;;
32214;SDS011;18708;53.124;23.190;2024-03-17T06:57:41;6.03;;;2.60;;
32214;SDS011;18708;53.124;23.190;2024-03-17T07:00:09;12.40;;;2.42;;
32214;SDS011;18708;53.124;23.190;2024-03-17T07:02:42;12.75;;;2.38;;
32214;SDS011;18708;53.124;23.190;2024-03-17T07:05:12;6.75;;;1.88;;
32214;SDS011;18708;53.124;23.190;2024-03-17T07:07:40;12.60;;;2.78;;
32214;SDS011;18708;53.124;23.190;2024-03-17T07:10:09;11.70;;;2.50;;
32214;SDS011;18708;53.124;23.190;2024-03-17T07:12:41;15.68;;;3.25;;
32214;SDS011;18708;53.124;23.190;2024-03-17T07:15:07;13.63;;;2.53;;
32214;SDS011;18708;53.124;23.190;2024-03-17T07:17:33;9.82;;;3.03;;
32214;SDS011;18708;53.124;23.190;2024-03-17T07:20:01;14.98;;;3.03;;
32214;SDS011;18708;53.124;23.190;2024-03-17T07:22:28;13.93;;;2.67;;
32214;SDS011;18708;53.124;23.190;2024-03-17T07:24:54;9.70;;;2.50;;
32214;SDS011;18708;53.124;23.190;2024-03-17T07:27:25;12.27;;;2.67;;
32214;SDS011;18708;53.124;23.190;2024-03-17T07:29:51;12.07;;;3.00;;
32214;SDS011;18708;53.124;23.190;2024-03-17T07:32:17;13.73;;;3.00;;
32214;SDS011;18708;53.124;23.190;2024-03-17T07:34:42;12.93;;;3.65;;
32214;SDS011;18708;53.124;23.190;2024-03-17T07:37:08;13.70;;;4.30;;
32214;SDS011;18708;53.124;23.190;2024-03-17T07:39:34;11.25;;;3.22;;
32214;SDS011;18708;53.124;23.190;2024-03-17T07:42:02;11.85;;;2.67;;
32214;SDS011;18708;53.124;23.190;2024-03-17T07:44:28;22.77;;;8.45;;
32214;SDS011;18708;53.124;23.190;2024-03-17T07:46:58;17.88;;;6.07;;
32214;SDS011;18708;53.124;23.190;2024-03-17T07:49:29;11.18;;;3.67;;
32214;SDS011;18708;53.124;23.190;2024-03-17T07:51:55;11.00;;;3.00;;
32214;SDS011;18708;53.124;23.190;2024-03-17T07:54:22;12.65;;;2.60;;
32214;SDS011;18708;53.124;23.190;2024-03-17T07:56:51;8.50;;;2.90;;
32214;SDS011;18708;53.124;23.190;2024-03-17T07:59:17;11.00;;;2.60;;
32214;SDS011;18708;53.124;23.190;2024-03-17T08:01:43;13.80;;;2.88;;
32214;SDS011;18708;53.124;23.190;2024-03-17T08:04:09;10.82;;;2.55;;
32214;SDS011;18708;53.124;23.190;2024-03-17T08:06:37;7.72;;;2.53;;
32214;SDS011;18708;53.124;23.190;2024-03-17T08:09:03;10.98;;;2.85;;
32214;SDS011;18708;53.124;23.190;2024-03-17T08:11:29;6.38;;;2.38;;
32214;SDS011;18708;53.124;23.190;2024-03-17T08:13:55;10.00;;;2.67;;
32214;SDS011;18708;53.124;23.190;2024-03-17T08:16:21;11.73;;;2.60;;
32214;SDS011;18708;53.124;23.190;2024-03-17T08:18:47;10.40;;;2.50;;
32214;SDS011;18708;53.124;23.190;2024-03-17T08:21:12;10.75;;;2.85;;
32214;SDS011;18708;53.124;23.190;2024-03-17T08:23:38;9.18;;;2.25;;
32214;SDS011;18708;53.124;23.190;2024-03-17T08:26:07;9.77;;;2.80;;
32214;SDS011;18708;53.124;23.190;2024-03-17T08:28:34;11.15;;;3.22;;
32214;SDS011;18708;53.124;23.190;2024-03-17T08:31:00;7.45;;;2.20;;
32214;SDS011;18708;53.124;23.190;2024-03-17T08:33:27;9.23;;;2.58;;
32214;SDS011;18708;53.124;23.190;2024-03-17T08:38:27;8.65;;;2.50;;
32214;SDS011;18708;53.124;23.190;2024-03-17T08:40:54;8.32;;;2.83;;
32214;SDS011;18708;53.124;23.190;2024-03-17T08:43:21;9.00;;;2.88;;
32214;SDS011;18708;53.124;23.190;2024-03-17T08:48:25;13.30;;;3.80;;
32214;SDS011;18708;53.124;23.190;2024-03-17T08:50:52;8.85;;;2.95;;
32214;SDS011;18708;53.124;23.190;2024-03-17T08:53:19;9.52;;;2.22;;
32214;SDS011;18708;53.124;23.190;2024-03-17T08:55:45;17.08;;;3.90;;
32214;SDS011;18708;53.124;23.190;2024-03-17T08:58:11;11.52;;;2.95;;
32214;SDS011;18708;53.124;23.190;2024-03-17T09:00:37;10.50;;;2.30;;
32214;SDS011;18708;53.124;23.190;2024-03-17T09:03:03;12.07;;;2.80;;
32214;SDS011;18708;53.124;23.190;2024-03-17T09:05:29;12.02;;;2.80;;
32214;SDS011;18708;53.124;23.190;2024-03-17T09:07:57;17.85;;;3.67;;
32214;SDS011;18708;53.124;23.190;2024-03-17T09:10:26;14.68;;;4.85;;
32214;SDS011;18708;53.124;23.190;2024-03-17T09:12:51;15.75;;;5.45;;
32214;SDS011;18708;53.124;23.190;2024-03-17T09:15:17;12.05;;;3.35;;
32214;SDS011;18708;53.124;23.190;2024-03-17T09:17:43;17.42;;;4.72;;
32214;SDS011;18708;53.124;23.190;2024-03-17T09:20:10;7.35;;;2.92;;
32214;SDS011;18708;53.124;23.190;2024-03-17T09:22:37;6.95;;;2.90;;
32214;SDS011;18708;53.124;23.190;2024-03-17T09:25:06;12.07;;;3.13;;
32214;SDS011;18708;53.124;23.190;2024-03-17T09:27:34;13.70;;;5.20;;
32214;SDS011;18708;53.124;23.190;2024-03-17T09:30:04;7.75;;;2.78;;
32214;SDS011;18708;53.124;23.190;2024-03-17T09:32:35;12.18;;;3.20;;
32214;SDS011;18708;53.124;23.190;2024-03-17T09:35:04;9.48;;;2.55;;
32214;SDS011;18708;53.124;23.190;2024-03-17T09:37:30;30.67;;;11.48;;
32214;SDS011;18708;53.124;23.190;2024-03-17T09:39:57;13.02;;;4.35;;
32214;SDS011;18708;53.124;23.190;2024-03-17T09:42:24;9.00;;;3.00;;
32214;SDS011;18708;53.124;23.190;2024-03-17T09:44:51;8.32;;;3.17;;
32214;SDS011;18708;53.124;23.190;2024-03-17T09:47:20;11.13;;;2.97;;
32214;SDS011;18708;53.124;23.190;2024-03-17T09:49:46;8.10;;;3.00;;
32214;SDS011;18708;53.124;23.190;2024-03-17T09:52:23;10.45;;;3.10;;
32214;SDS011;18708;53.124;23.190;2024-03-17T09:54:58;8.00;;;2.92;;
32214;SDS011;18708;53.124;23.190;2024-03-17T09:57:26;9.05;;;3.03;;
32214;SDS011;18708;53.124;23.190;2024-03-17T09:59:55;5.38;;;2.60;;
32214;SDS011;18708;53.124;23.190;2024-03-17T10:02:21;8.00;;;3.97;;
32214;SDS011;18708;53.124;23.190;2024-03-17T10:04:47;9.55;;;3.45;;
32214;SDS011;18708;53.124;23.190;2024-03-17T10:07:14;8.45;;;2.70;;
32214;SDS011;18708;53.124;23.190;2024-03-17T10:09:42;9.55;;;3.15;;
32214;SDS011;18708;53.124;23.190;2024-03-17T10:12:27;9.48;;;3.05;;
32214;SDS011;18708;53.124;23.190;2024-03-17T10:15:00;9.20;;;3.00;;
32214;SDS011;18708;53.124;23.190;2024-03-17T10:17:30;6.85;;;3.47;;
32214;SDS011;18708;53.124;23.190;2024-03-17T10:20:12;9.88;;;3.60;;
32214;SDS011;18708;53.124;23.190;2024-03-17T10:25:25;8.85;;;2.75;;
32214;SDS011;18708;53.124;23.190;2024-03-17T10:27:51;10.20;;;2.67;;
32214;SDS011;18708;53.124;23.190;2024-03-17T10:30:18;8.57;;;3.45;;
32214;SDS011;18708;53.124;23.190;2024-03-17T10:32:53;8.77;;;3.00;;
32214;SDS011;18708;53.124;23.190;2024-03-17T10:35:33;8.50;;;3.10;;
32214;SDS011;18708;53.124;23.190;2024-03-17T10:38:04;11.70;;;3.67;;
32214;SDS011;18708;53.124;23.190;2024-03-17T10:40:30;11.32;;;4.18;;
32214;SDS011;18708;53.124;23.190;2024-03-17T10:42:59;9.55;;;4.43;;
32214;SDS011;18708;53.124;23.190;2024-03-17T10:45:26;10.38;;;4.32;;
32214;SDS011;18708;53.124;23.190;2024-03-17T10:47:55;11.70;;;3.95;;
32214;SDS011;18708;53.124;23.190;2024-03-17T10:50:25;13.35;;;3.97;;
32214;SDS011;18708;53.124;23.190;2024-03-17T10:52:55;8.30;;;3.90;;
32214;SDS011;18708;53.124;23.190;2024-03-17T10:55:23;11.50;;;4.15;;
32214;SDS011;18708;53.124;23.190;2024-03-17T10:57:53;9.88;;;4.30;;
32214;SDS011;18708;53.124;23.190;2024-03-17T11:00:23;11.13;;;4.80;;
32214;SDS011;18708;53.124;23.190;2024-03-17T11:02:54;9.43;;;5.15;;
32214;SDS011;18708;53.124;23.190;2024-03-17T11:05:24;11.50;;;4.93;;
32214;SDS011;18708;53.124;23.190;2024-03-17T11:07:54;10.85;;;5.55;;
32214;SDS011;18708;53.124;23.190;2024-03-17T11:10:25;9.80;;;4.93;;
32214;SDS011;18708;53.124;23.190;2024-03-17T11:12:54;8.93;;;5.13;;
32214;SDS011;18708;53.124;23.190;2024-03-17T11:17:55;9.48;;;4.57;;
32214;SDS011;18708;53.124;23.190;2024-03-17T11:23:40;10.85;;;5.38;;
32214;SDS011;18708;53.124;23.190;2024-03-17T11:26:07;9.13;;;4.40;;
32214;SDS011;18708;53.124;23.190;2024-03-17T11:36:55;4.68;;;2.50;;
32214;SDS011;18708;53.124;23.190;2024-03-17T11:42:22;4.93;;;2.42;;
32214;SDS011;18708;53.124;23.190;2024-03-17T11:44:56;5.70;;;2.55;;
32214;SDS011;18708;53.124;23.190;2024-03-17T11:49:49;7.25;;;2.05;;
32214;SDS011;18708;53.124;23.190;2024-03-17T11:52:16;7.05;;;2.25;;
32214;SDS011;18708;53.124;23.190;2024-03-17T11:54:44;6.85;;;2.70;;
32214;SDS011;18708;53.124;23.190;2024-03-17T11:57:17;3.47;;;1.63;;
32214;SDS011;18708;53.124;23.190;2024-03-17T11:59:49;4.13;;;2.20;;
32214;SDS011;18708;53.124;23.190;2024-03-17T12:04:57;3.35;;;2.05;;
32214;SDS011;18708;53.124;23.190;2024-03-17T12:07:23;4.38;;;2.40;;
32214;SDS011;18708;53.124;23.190;2024-03-17T12:09:50;3.95;;;2.40;;
32214;SDS011;18708;53.124;23.190;2024-03-17T12:12:18;5.47;;;2.75;;
32214;SDS011;18708;53.124;23.190;2024-03-17T12:14:44;4.60;;;2.35;;
32214;SDS011;18708;53.124;23.190;2024-03-17T12:17:12;5.40;;;2.80;;
32214;SDS011;18708;53.124;23.190;2024-03-17T12:19:43;2.60;;;2.40;;
32214;SDS011;18708;53.124;23.190;2024-03-17T12:22:14;4.78;;;2.63;;
32214;SDS011;18708;53.124;23.190;2024-03-17T12:24:50;8.55;;;3.55;;
32214;SDS011;18708;53.124;23.190;2024-03-17T12:27:20;8.18;;;3.33;;
32214;SDS011;18708;53.124;23.190;2024-03-17T12:29:53;6.00;;;3.13;;
32214;SDS011;18708;53.124;23.190;2024-03-17T12:32:20;4.15;;;3.25;;
32214;SDS011;18708;53.124;23.190;2024-03-17T12:34:49;3.63;;;2.50;;
32214;SDS011;18708;53.124;23.190;2024-03-17T12:39:45;8.00;;;3.00;;
32214;SDS011;18708;53.124;23.190;2024-03-17T12:42:16;5.13;;;2.70;;
32214;SDS011;18708;53.124;23.190;2024-03-17T12:44:54;5.97;;;4.22;;
32214;SDS011;18708;53.124;23.190;2024-03-17T12:47:21;8.10;;;4.32;;
32214;SDS011;18708;53.124;23.190;2024-03-17T12:49:52;21.92;;;10.38;;
32214;SDS011;18708;53.124;23.190;2024-03-17T12:52:21;6.25;;;3.65;;
32214;SDS011;18708;53.124;23.190;2024-03-17T12:55:02;5.00;;;2.92;;
32214;SDS011;18708;53.124;23.190;2024-03-17T12:57:50;9.55;;;4.53;;
32214;SDS011;18708;53.124;23.190;2024-03-17T13:00:35;5.72;;;3.97;;
32214;SDS011;18708;53.124;23.190;2024-03-17T13:03:05;15.50;;;5.97;;
32214;SDS011;18708;53.124;23.190;2024-03-17T13:05:35;5.18;;;3.25;;
32214;SDS011;18708;53.124;23.190;2024-03-17T13:08:01;16.55;;;7.35;;
32214;SDS011;18708;53.124;23.190;2024-03-17T13:10:28;13.07;;;6.25;;
32214;SDS011;18708;53.124;23.190;2024-03-17T13:12:58;12.93;;;6.38;;
32214;SDS011;18708;53.124;23.190;2024-03-17T13:15:26;9.18;;;5.22;;
32214;SDS011;18708;53.124;23.190;2024-03-17T13:17:52;7.85;;;4.85;;
32214;SDS011;18708;53.124;23.190;2024-03-17T13:20:17;8.88;;;5.07;;
32214;SDS011;18708;53.124;23.190;2024-03-17T13:22:43;6.10;;;3.92;;
32214;SDS011;18708;53.124;23.190;2024-03-17T13:27:43;7.88;;;4.07;;
32214;SDS011;18708;53.124;23.190;2024-03-17T13:30:12;6.38;;;4.07;;
32214;SDS011;18708;53.124;23.190;2024-03-17T13:32:39;10.18;;;5.47;;
32214;SDS011;18708;53.124;23.190;2024-03-17T13:35:05;5.93;;;3.72;;
32214;SDS011;18708;53.124;23.190;2024-03-17T13:37:34;6.82;;;4.25;;
32214;SDS011;18708;53.124;23.190;2024-03-17T13:40:03;7.03;;;4.15;;
32214;SDS011;18708;53.124;23.190;2024-03-17T13:42:30;3.88;;;2.80;;
32214;SDS011;18708;53.124;23.190;2024-03-17T13:44:56;6.50;;;3.35;;
32214;SDS011;18708;53.124;23.190;2024-03-17T13:47:21;4.25;;;2.33;;
32214;SDS011;18708;53.124;23.190;2024-03-17T13:49:47;8.88;;;3.72;;
32214;SDS011;18708;53.124;23.190;2024-03-17T13:52:13;5.30;;;3.10;;
32214;SDS011;18708;53.124;23.190;2024-03-17T13:54:39;2.40;;;1.70;;
32214;SDS011;18708;53.124;23.190;2024-03-17T13:57:04;5.78;;;2.60;;
32214;SDS011;18708;53.124;23.190;2024-03-17T13:59:30;3.33;;;2.60;;
32214;SDS011;18708;53.124;23.190;2024-03-17T14:01:57;4.15;;;2.72;;
32214;SDS011;18708;53.124;23.190;2024-03-17T14:04:23;2.40;;;2.03;;
32214;SDS011;18708;53.124;23.190;2024-03-17T14:06:48;3.97;;;2.30;;
32214;SDS011;18708;53.124;23.190;2024-03-17T14:09:15;3.63;;;2.38;;
32214;SDS011;18708;53.124;23.190;2024-03-17T14:11:44;3.90;;;3.08;;
32214;SDS011;18708;53.124;23.190;2024-03-17T14:14:13;3.28;;;2.58;;
32214;SDS011;18708;53.124;23.190;2024-03-17T14:16:39;5.80;;;3.13;;
32214;SDS011;18708;53.124;23.190;2024-03-17T14:19:05;3.92;;;2.85;;
32214;SDS011;18708;53.124;23.190;2024-03-17T14:21:31;5.25;;;3.13;;
32214;SDS011;18708;53.124;23.190;2024-03-17T14:23:59;4.60;;;3.05;;
32214;SDS011;18708;53.124;23.190;2024-03-17T14:26:28;8.20;;;4.10;;
32214;SDS011;18708;53.124;23.190;2024-03-17T14:28:54;6.85;;;4.57;;
32214;SDS011;18708;53.124;23.190;2024-03-17T14:31:21;5.85;;;4.05;;
32214;SDS011;18708;53.124;23.190;2024-03-17T14:33:47;10.68;;;6.00;;
32214;SDS011;18708;53.124;23.190;2024-03-17T14:36:13;15.00;;;10.43;;
32214;SDS011;18708;53.124;23.190;2024-03-17T14:38:39;12.38;;;9.80;;
32214;SDS011;18708;53.124;23.190;2024-03-17T14:41:04;7.43;;;5.68;;
32214;SDS011;18708;53.124;23.190;2024-03-17T14:43:31;6.38;;;3.22;;
32214;SDS011;18708;53.124;23.190;2024-03-17T14:45:56;6.47;;;4.57;;
32214;SDS011;18708;53.124;23.190;2024-03-17T14:48:22;9.05;;;5.03;;
32214;SDS011;18708;53.124;23.190;2024-03-17T14:50:50;6.25;;;3.90;;
32214;SDS011;18708;53.124;23.190;2024-03-17T14:53:18;6.95;;;4.43;;
32214;SDS011;18708;53.124;23.190;2024-03-17T14:55:45;8.77;;;5.57;;
32214;SDS011;18708;53.124;23.190;2024-03-17T14:58:11;7.95;;;5.28;;
32214;SDS011;18708;53.124;23.190;2024-03-17T15:00:37;7.32;;;5.45;;
32214;SDS011;18708;53.124;23.190;2024-03-17T15:03:03;12.88;;;8.27;;
32214;SDS011;18708;53.124;23.190;2024-03-17T15:05:32;9.68;;;4.28;;